sensor_id;sensor_type;location;lat;lon;timestamp;P1;durP1;ratioP1;P2;durP2;ratioP2
30048;SDS011;16879;50.852;15.602;2023-05-07T00:01:49;13.02;;;9.60;;
30048;SDS011;16879;50.852;15.602;2023-05-07T00:04:15;19.52;;;11.77;;
30048;SDS011;16879;50.852;15.602;2023-05-07T00:06:41;14.48;;;10.38;;
30048;SDS011;16879;50.852;15.602;2023-05-07T00:09:08;16.15;;;10.68;;
30048;SDS011;16879;50.852;15.602;2023-05-07T00:11:34;15.68;;;11.13;;
30048;SDS011;16879;50.852;15.602;2023-05-07T00:14:00;13.15;;;9.05;;
30048;SDS011;16879;50.852;15.602;2023-05-07T00:16:26;14.43;;;10.10;;
30048;SDS011;16879;50.852;15.602;2023-05-07T00:18:52;13.43;;;9.43;;
30048;SDS011;16879;50.852;15.602;2023-05-07T00:21:19;12.70;;;8.65;;
30048;SDS011;16879;50.852;15.602;2023-05-07T00:23:46;16.42;;;10.07;;
30048;SDS011;16879;50.852;15.602;2023-05-07T00:26:13;14.25;;;10.48;;
30048;SDS011;16879;50.852;15.602;2023-05-07T00:28:40;12.52;;;9.15;;
30048;SDS011;16879;50.852;15.602;2023-05-07T00:31:06;12.77;;;8.90;;
30048;SDS011;16879;50.852;15.602;2023-05-07T00:33:32;17.50;;;11.10;;
30048;SDS011;16879;50.852;15.602;2023-05-07T00:35:58;13.82;;;10.68;;
30048;SDS011;16879;50.852;15.602;2023-05-07T00:38:26;15.25;;;10.57;;
30048;SDS011;16879;50.852;15.602;2023-05-07T00:40:53;15.57;;;10.13;;
30048;SDS011;16879;50.852;15.602;2023-05-07T00:43:19;13.90;;;9.18;;
30048;SDS011;16879;50.852;15.602;2023-05-07T00:45:45;12.23;;;9.57;;
30048;SDS011;16879;50.852;15.602;2023-05-07T00:48:11;13.30;;;8.82;;
30048;SDS011;16879;50.852;15.602;2023-05-07T00:50:41;13.13;;;9.30;;
30048;SDS011;16879;50.852;15.602;2023-05-07T00:53:07;14.80;;;10.32;;
30048;SDS011;16879;50.852;15.602;2023-05-07T00:55:34;17.10;;;11.27;;
30048;SDS011;16879;50.852;15.602;2023-05-07T00:58:01;14.23;;;10.02;;
30048;SDS011;16879;50.852;15.602;2023-05-07T01:00:28;14.93;;;10.02;;
30048;SDS011;16879;50.852;15.602;2023-05-07T01:02:54;14.27;;;9.52;;
30048;SDS011;16879;50.852;15.602;2023-05-07T01:05:20;19.48;;;12.45;;
30048;SDS011;16879;50.852;15.602;2023-05-07T01:07:47;17.08;;;10.55;;
30048;SDS011;16879;50.852;15.602;2023-05-07T01:10:13;17.75;;;11.50;;
30048;SDS011;16879;50.852;15.602;2023-05-07T01:12:40;17.33;;;11.20;;
30048;SDS011;16879;50.852;15.602;2023-05-07T01:15:10;16.25;;;10.50;;
30048;SDS011;16879;50.852;15.602;2023-05-07T01:17:40;15.75;;;11.70;;
30048;SDS011;16879;50.852;15.602;2023-05-07T01:20:07;16.13;;;11.52;;
30048;SDS011;16879;50.852;15.602;2023-05-07T01:22:37;17.58;;;11.32;;
30048;SDS011;16879;50.852;15.602;2023-05-07T01:25:03;15.60;;;10.52;;
30048;SDS011;16879;50.852;15.602;2023-05-07T01:27:30;16.50;;;11.50;;
30048;SDS011;16879;50.852;15.602;2023-05-07T01:29:58;15.95;;;10.80;;
30048;SDS011;16879;50.852;15.602;2023-05-07T01:32:35;15.15;;;10.07;;
30048;SDS011;16879;50.852;15.602;2023-05-07T01:35:01;14.65;;;9.25;;
30048;SDS011;16879;50.852;15.602;2023-05-07T01:37:30;12.88;;;9.30;;
30048;SDS011;16879;50.852;15.602;2023-05-07T01:39:56;17.38;;;10.15;;
30048;SDS011;16879;50.852;15.602;2023-05-07T01:42:23;14.70;;;10.15;;
30048;SDS011;16879;50.852;15.602;2023-05-07T01:44:49;12.00;;;8.82;;
30048;SDS011;16879;50.852;15.602;2023-05-07T01:47:15;11.70;;;8.65;;
30048;SDS011;16879;50.852;15.602;2023-05-07T01:49:42;11.52;;;8.82;;
30048;SDS011;16879;50.852;15.602;2023-05-07T01:52:09;13.07;;;9.18;;
30048;SDS011;16879;50.852;15.602;2023-05-07T01:54:36;15.93;;;10.65;;
30048;SDS011;16879;50.852;15.602;2023-05-07T01:57:03;16.10;;;10.35;;
30048;SDS011;16879;50.852;15.602;2023-05-07T01:59:29;12.10;;;8.45;;
30048;SDS011;16879;50.852;15.602;2023-05-07T02:01:55;10.75;;;8.00;;
30048;SDS011;16879;50.852;15.602;2023-05-07T02:04:21;10.45;;;9.13;;
30048;SDS011;16879;50.852;15.602;2023-05-07T02:06:47;12.20;;;9.35;;
30048;SDS011;16879;50.852;15.602;2023-05-07T02:09:13;13.35;;;9.55;;
30048;SDS011;16879;50.852;15.602;2023-05-07T02:11:40;14.38;;;11.50;;
30048;SDS011;16879;50.852;15.602;2023-05-07T02:14:05;13.10;;;9.88;;
30048;SDS011;16879;50.852;15.602;2023-05-07T02:16:32;11.65;;;10.23;;
30048;SDS011;16879;50.852;15.602;2023-05-07T02:18:57;11.85;;;10.48;;
30048;SDS011;16879;50.852;15.602;2023-05-07T02:21:24;14.65;;;12.00;;
30048;SDS011;16879;50.852;15.602;2023-05-07T02:23:50;15.18;;;12.52;;
30048;SDS011;16879;50.852;15.602;2023-05-07T02:26:16;26.35;;;18.08;;
30048;SDS011;16879;50.852;15.602;2023-05-07T02:28:42;23.60;;;17.98;;
30048;SDS011;16879;50.852;15.602;2023-05-07T02:31:08;21.45;;;17.55;;
30048;SDS011;16879;50.852;15.602;2023-05-07T02:33:34;21.88;;;16.75;;
30048;SDS011;16879;50.852;15.602;2023-05-07T02:36:05;19.80;;;13.90;;
30048;SDS011;16879;50.852;15.602;2023-05-07T02:38:31;16.45;;;12.32;;
30048;SDS011;16879;50.852;15.602;2023-05-07T02:40:58;16.40;;;13.25;;
30048;SDS011;16879;50.852;15.602;2023-05-07T02:43:23;14.93;;;11.73;;
30048;SDS011;16879;50.852;15.602;2023-05-07T02:45:59;15.55;;;11.30;;
30048;SDS011;16879;50.852;15.602;2023-05-07T02:48:26;15.35;;;11.60;;
30048;SDS011;16879;50.852;15.602;2023-05-07T02:50:52;14.35;;;10.57;;
30048;SDS011;16879;50.852;15.602;2023-05-07T02:53:18;17.60;;;12.85;;
30048;SDS011;16879;50.852;15.602;2023-05-07T02:55:44;14.73;;;10.95;;
30048;SDS011;16879;50.852;15.602;2023-05-07T02:58:10;13.10;;;10.07;;
30048;SDS011;16879;50.852;15.602;2023-05-07T03:00:36;12.80;;;9.02;;
30048;SDS011;16879;50.852;15.602;2023-05-07T03:03:02;11.63;;;9.40;;
30048;SDS011;16879;50.852;15.602;2023-05-07T03:05:31;14.52;;;11.27;;
30048;SDS011;16879;50.852;15.602;2023-05-07T03:07:57;13.90;;;9.32;;
30048;SDS011;16879;50.852;15.602;2023-05-07T03:10:23;14.02;;;9.27;;
30048;SDS011;16879;50.852;15.602;2023-05-07T03:12:50;13.35;;;9.85;;
30048;SDS011;16879;50.852;15.602;2023-05-07T03:15:16;18.83;;;13.52;;
30048;SDS011;16879;50.852;15.602;2023-05-07T03:17:42;12.88;;;10.45;;
30048;SDS011;16879;50.852;15.602;2023-05-07T03:20:11;16.13;;;11.55;;
30048;SDS011;16879;50.852;15.602;2023-05-07T03:22:38;15.48;;;10.18;;
30048;SDS011;16879;50.852;15.602;2023-05-07T03:25:04;19.52;;;11.57;;
30048;SDS011;16879;50.852;15.602;2023-05-07T03:27:30;20.33;;;13.10;;
30048;SDS011;16879;50.852;15.602;2023-05-07T03:29:57;19.58;;;11.75;;
30048;SDS011;16879;50.852;15.602;2023-05-07T03:32:23;14.10;;;11.20;;
30048;SDS011;16879;50.852;15.602;2023-05-07T03:34:49;16.08;;;11.55;;
30048;SDS011;16879;50.852;15.602;2023-05-07T03:37:15;14.85;;;10.57;;
30048;SDS011;16879;50.852;15.602;2023-05-07T03:39:41;13.48;;;10.48;;
30048;SDS011;16879;50.852;15.602;2023-05-07T03:42:07;14.43;;;9.98;;
30048;SDS011;16879;50.852;15.602;2023-05-07T03:44:33;12.70;;;8.27;;
30048;SDS011;16879;50.852;15.602;2023-05-07T03:47:01;10.95;;;9.52;;
30048;SDS011;16879;50.852;15.602;2023-05-07T03:49:27;14.70;;;8.25;;
30048;SDS011;16879;50.852;15.602;2023-05-07T03:51:53;11.38;;;8.20;;
30048;SDS011;16879;50.852;15.602;2023-05-07T03:54:20;10.68;;;8.20;;
30048;SDS011;16879;50.852;15.602;2023-05-07T03:56:46;11.57;;;8.57;;
30048;SDS011;16879;50.852;15.602;2023-05-07T03:59:12;11.43;;;8.10;;
30048;SDS011;16879;50.852;15.602;2023-05-07T04:01:41;11.43;;;7.97;;
30048;SDS011;16879;50.852;15.602;2023-05-07T04:04:07;12.02;;;8.18;;
30048;SDS011;16879;50.852;15.602;2023-05-07T04:06:33;10.00;;;6.75;;
30048;SDS011;16879;50.852;15.602;2023-05-07T04:08:59;10.98;;;6.93;;
30048;SDS011;16879;50.852;15.602;2023-05-07T04:11:26;7.40;;;5.75;;
30048;SDS011;16879;50.852;15.602;2023-05-07T04:13:52;9.30;;;6.72;;
30048;SDS011;16879;50.852;15.602;2023-05-07T04:16:18;9.10;;;6.90;;
30048;SDS011;16879;50.852;15.602;2023-05-07T04:18:44;12.25;;;7.72;;
30048;SDS011;16879;50.852;15.602;2023-05-07T04:21:16;11.50;;;8.20;;
30048;SDS011;16879;50.852;15.602;2023-05-07T04:23:42;14.63;;;9.13;;
30048;SDS011;16879;50.852;15.602;2023-05-07T04:26:09;11.55;;;9.68;;
30048;SDS011;16879;50.852;15.602;2023-05-07T04:28:36;12.02;;;9.73;;
30048;SDS011;16879;50.852;15.602;2023-05-07T04:31:02;10.40;;;8.15;;
30048;SDS011;16879;50.852;15.602;2023-05-07T04:33:27;9.77;;;7.18;;
30048;SDS011;16879;50.852;15.602;2023-05-07T04:35:53;9.63;;;7.85;;
30048;SDS011;16879;50.852;15.602;2023-05-07T04:38:19;10.73;;;8.32;;
30048;SDS011;16879;50.852;15.602;2023-05-07T04:40:46;9.70;;;8.02;;
30048;SDS011;16879;50.852;15.602;2023-05-07T04:43:12;8.77;;;7.25;;
30048;SDS011;16879;50.852;15.602;2023-05-07T04:45:39;10.35;;;7.82;;
30048;SDS011;16879;50.852;15.602;2023-05-07T04:48:06;10.40;;;8.70;;
30048;SDS011;16879;50.852;15.602;2023-05-07T04:50:32;9.45;;;7.78;;
30048;SDS011;16879;50.852;15.602;2023-05-07T04:52:58;11.27;;;8.40;;
30048;SDS011;16879;50.852;15.602;2023-05-07T04:55:25;8.82;;;7.78;;
30048;SDS011;16879;50.852;15.602;2023-05-07T04:57:51;9.00;;;7.30;;
30048;SDS011;16879;50.852;15.602;2023-05-07T05:00:17;9.30;;;6.72;;
30048;SDS011;16879;50.852;15.602;2023-05-07T05:02:45;8.88;;;7.32;;
30048;SDS011;16879;50.852;15.602;2023-05-07T05:05:11;7.82;;;6.60;;
30048;SDS011;16879;50.852;15.602;2023-05-07T05:07:37;8.57;;;6.68;;
30048;SDS011;16879;50.852;15.602;2023-05-07T05:10:04;10.60;;;7.60;;
30048;SDS011;16879;50.852;15.602;2023-05-07T05:12:31;8.13;;;6.45;;
30048;SDS011;16879;50.852;15.602;2023-05-07T05:14:57;8.05;;;5.97;;
30048;SDS011;16879;50.852;15.602;2023-05-07T05:17:23;8.27;;;6.28;;
30048;SDS011;16879;50.852;15.602;2023-05-07T05:19:49;5.80;;;5.20;;
30048;SDS011;16879;50.852;15.602;2023-05-07T05:22:16;5.45;;;4.93;;
30048;SDS011;16879;50.852;15.602;2023-05-07T05:24:42;7.72;;;6.28;;
30048;SDS011;16879;50.852;15.602;2023-05-07T05:27:08;7.15;;;6.32;;
30048;SDS011;16879;50.852;15.602;2023-05-07T05:29:34;5.85;;;5.25;;
30048;SDS011;16879;50.852;15.602;2023-05-07T05:32:00;5.72;;;4.70;;
30048;SDS011;16879;50.852;15.602;2023-05-07T05:34:26;5.93;;;5.03;;
30048;SDS011;16879;50.852;15.602;2023-05-07T05:36:52;6.50;;;5.15;;
30048;SDS011;16879;50.852;15.602;2023-05-07T05:39:19;5.13;;;4.45;;
30048;SDS011;16879;50.852;15.602;2023-05-07T05:41:46;4.80;;;4.30;;
30048;SDS011;16879;50.852;15.602;2023-05-07T05:44:12;5.43;;;4.63;;
30048;SDS011;16879;50.852;15.602;2023-05-07T05:46:38;8.02;;;5.10;;
30048;SDS011;16879;50.852;15.602;2023-05-07T05:49:04;7.18;;;5.53;;
30048;SDS011;16879;50.852;15.602;2023-05-07T05:51:31;6.05;;;5.32;;
30048;SDS011;16879;50.852;15.602;2023-05-07T05:53:57;6.22;;;5.65;;
30048;SDS011;16879;50.852;15.602;2023-05-07T05:56:23;5.85;;;5.25;;
30048;SDS011;16879;50.852;15.602;2023-05-07T05:58:49;7.65;;;6.95;;
30048;SDS011;16879;50.852;15.602;2023-05-07T06:01:15;11.15;;;9.68;;
30048;SDS011;16879;50.852;15.602;2023-05-07T06:03:42;8.80;;;7.93;;
30048;SDS011;16879;50.852;15.602;2023-05-07T06:06:09;9.68;;;8.77;;
30048;SDS011;16879;50.852;15.602;2023-05-07T06:08:37;10.50;;;9.48;;
30048;SDS011;16879;50.852;15.602;2023-05-07T06:11:02;11.77;;;10.57;;
30048;SDS011;16879;50.852;15.602;2023-05-07T06:13:32;12.90;;;11.55;;
30048;SDS011;16879;50.852;15.602;2023-05-07T06:15:59;11.63;;;9.15;;
30048;SDS011;16879;50.852;15.602;2023-05-07T06:18:25;8.68;;;7.78;;
30048;SDS011;16879;50.852;15.602;2023-05-07T06:20:51;9.05;;;7.65;;
30048;SDS011;16879;50.852;15.602;2023-05-07T06:23:18;9.98;;;8.80;;
30048;SDS011;16879;50.852;15.602;2023-05-07T06:25:50;9.10;;;8.20;;
30048;SDS011;16879;50.852;15.602;2023-05-07T06:28:17;8.90;;;7.63;;
30048;SDS011;16879;50.852;15.602;2023-05-07T06:30:43;9.40;;;8.40;;
30048;SDS011;16879;50.852;15.602;2023-05-07T06:33:10;11.48;;;8.65;;
30048;SDS011;16879;50.852;15.602;2023-05-07T06:35:36;9.65;;;8.45;;
30048;SDS011;16879;50.852;15.602;2023-05-07T06:38:02;9.00;;;7.78;;
30048;SDS011;16879;50.852;15.602;2023-05-07T06:40:28;10.45;;;8.75;;
30048;SDS011;16879;50.852;15.602;2023-05-07T06:42:55;10.45;;;8.55;;
30048;SDS011;16879;50.852;15.602;2023-05-07T06:45:21;9.10;;;8.07;;
30048;SDS011;16879;50.852;15.602;2023-05-07T06:47:59;10.10;;;8.07;;
30048;SDS011;16879;50.852;15.602;2023-05-07T06:50:28;10.20;;;7.15;;
30048;SDS011;16879;50.852;15.602;2023-05-07T06:52:54;9.00;;;7.60;;
30048;SDS011;16879;50.852;15.602;2023-05-07T06:55:20;9.48;;;7.00;;
30048;SDS011;16879;50.852;15.602;2023-05-07T06:57:46;8.18;;;6.82;;
30048;SDS011;16879;50.852;15.602;2023-05-07T07:00:12;8.15;;;7.28;;
30048;SDS011;16879;50.852;15.602;2023-05-07T07:02:39;9.20;;;6.63;;
30048;SDS011;16879;50.852;15.602;2023-05-07T07:05:05;7.18;;;6.47;;
30048;SDS011;16879;50.852;15.602;2023-05-07T07:07:31;8.73;;;7.32;;
30048;SDS011;16879;50.852;15.602;2023-05-07T07:09:58;8.75;;;7.75;;
30048;SDS011;16879;50.852;15.602;2023-05-07T07:12:23;10.93;;;7.82;;
30048;SDS011;16879;50.852;15.602;2023-05-07T07:14:51;8.15;;;7.35;;
30048;SDS011;16879;50.852;15.602;2023-05-07T07:17:17;8.63;;;7.10;;
30048;SDS011;16879;50.852;15.602;2023-05-07T07:19:42;10.57;;;8.13;;
30048;SDS011;16879;50.852;15.602;2023-05-07T07:22:08;9.25;;;7.13;;
30048;SDS011;16879;50.852;15.602;2023-05-07T07:24:35;8.13;;;6.78;;
30048;SDS011;16879;50.852;15.602;2023-05-07T07:27:01;8.73;;;6.38;;
30048;SDS011;16879;50.852;15.602;2023-05-07T07:29:27;7.95;;;7.25;;
30048;SDS011;16879;50.852;15.602;2023-05-07T07:31:53;10.07;;;8.25;;
30048;SDS011;16879;50.852;15.602;2023-05-07T07:34:19;8.25;;;7.45;;
30048;SDS011;16879;50.852;15.602;2023-05-07T07:36:45;7.18;;;6.53;;
30048;SDS011;16879;50.852;15.602;2023-05-07T07:39:12;10.30;;;6.97;;
30048;SDS011;16879;50.852;15.602;2023-05-07T07:41:38;9.80;;;7.82;;
30048;SDS011;16879;50.852;15.602;2023-05-07T07:44:04;11.30;;;8.93;;
30048;SDS011;16879;50.852;15.602;2023-05-07T07:46:32;10.18;;;8.77;;
30048;SDS011;16879;50.852;15.602;2023-05-07T07:48:58;9.63;;;8.63;;
30048;SDS011;16879;50.852;15.602;2023-05-07T07:51:25;10.73;;;9.38;;
30048;SDS011;16879;50.852;15.602;2023-05-07T07:53:51;11.45;;;10.23;;
30048;SDS011;16879;50.852;15.602;2023-05-07T07:56:18;11.27;;;9.90;;
30048;SDS011;16879;50.852;15.602;2023-05-07T07:58:43;10.82;;;9.63;;
30048;SDS011;16879;50.852;15.602;2023-05-07T08:01:10;12.20;;;10.43;;
30048;SDS011;16879;50.852;15.602;2023-05-07T08:03:37;15.50;;;13.00;;
30048;SDS011;16879;50.852;15.602;2023-05-07T08:06:03;15.50;;;12.25;;
30048;SDS011;16879;50.852;15.602;2023-05-07T08:08:30;11.50;;;9.25;;
30048;SDS011;16879;50.852;15.602;2023-05-07T08:10:56;19.13;;;13.73;;
30048;SDS011;16879;50.852;15.602;2023-05-07T08:13:22;34.70;;;20.80;;
30048;SDS011;16879;50.852;15.602;2023-05-07T08:15:48;18.50;;;12.38;;
30048;SDS011;16879;50.852;15.602;2023-05-07T08:18:14;28.50;;;16.73;;
30048;SDS011;16879;50.852;15.602;2023-05-07T08:20:42;27.42;;;17.08;;
30048;SDS011;16879;50.852;15.602;2023-05-07T08:23:08;44.40;;;25.52;;
30048;SDS011;16879;50.852;15.602;2023-05-07T08:25:34;21.42;;;15.15;;
30048;SDS011;16879;50.852;15.602;2023-05-07T08:28:01;13.00;;;9.75;;
30048;SDS011;16879;50.852;15.602;2023-05-07T08:30:28;12.85;;;10.00;;
30048;SDS011;16879;50.852;15.602;2023-05-07T08:32:54;11.73;;;10.00;;
30048;SDS011;16879;50.852;15.602;2023-05-07T08:35:20;10.02;;;8.45;;
30048;SDS011;16879;50.852;15.602;2023-05-07T08:37:46;10.88;;;8.25;;
30048;SDS011;16879;50.852;15.602;2023-05-07T08:40:12;9.63;;;8.40;;
30048;SDS011;16879;50.852;15.602;2023-05-07T08:42:39;10.40;;;8.55;;
30048;SDS011;16879;50.852;15.602;2023-05-07T08:45:09;16.77;;;12.95;;
30048;SDS011;16879;50.852;15.602;2023-05-07T08:47:40;12.07;;;9.38;;
30048;SDS011;16879;50.852;15.602;2023-05-07T08:50:07;10.50;;;8.68;;
30048;SDS011;16879;50.852;15.602;2023-05-07T08:52:33;10.95;;;9.07;;
30048;SDS011;16879;50.852;15.602;2023-05-07T08:55:01;10.88;;;8.85;;
30048;SDS011;16879;50.852;15.602;2023-05-07T08:57:28;12.10;;;8.18;;
30048;SDS011;16879;50.852;15.602;2023-05-07T08:59:54;8.45;;;7.57;;
30048;SDS011;16879;50.852;15.602;2023-05-07T09:02:20;8.85;;;7.93;;
30048;SDS011;16879;50.852;15.602;2023-05-07T09:04:47;9.57;;;7.10;;
30048;SDS011;16879;50.852;15.602;2023-05-07T09:07:13;9.43;;;8.52;;
30048;SDS011;16879;50.852;15.602;2023-05-07T09:09:39;15.05;;;9.68;;
30048;SDS011;16879;50.852;15.602;2023-05-07T09:12:05;17.55;;;12.20;;
30048;SDS011;16879;50.852;15.602;2023-05-07T09:14:31;11.27;;;9.15;;
30048;SDS011;16879;50.852;15.602;2023-05-07T09:16:58;15.25;;;10.65;;
30048;SDS011;16879;50.852;15.602;2023-05-07T09:19:24;10.60;;;8.52;;
30048;SDS011;16879;50.852;15.602;2023-05-07T09:21:57;9.68;;;8.13;;
30048;SDS011;16879;50.852;15.602;2023-05-07T09:24:25;9.40;;;7.75;;
30048;SDS011;16879;50.852;15.602;2023-05-07T09:26:50;9.20;;;8.13;;
30048;SDS011;16879;50.852;15.602;2023-05-07T09:29:17;8.82;;;7.88;;
30048;SDS011;16879;50.852;15.602;2023-05-07T09:31:43;11.30;;;9.10;;
30048;SDS011;16879;50.852;15.602;2023-05-07T09:34:09;12.40;;;9.40;;
30048;SDS011;16879;50.852;15.602;2023-05-07T09:36:35;10.15;;;7.80;;
30048;SDS011;16879;50.852;15.602;2023-05-07T09:39:01;8.38;;;7.47;;
30048;SDS011;16879;50.852;15.602;2023-05-07T09:41:27;9.27;;;8.30;;
30048;SDS011;16879;50.852;15.602;2023-05-07T09:43:56;8.65;;;7.75;;
30048;SDS011;16879;50.852;15.602;2023-05-07T09:46:25;12.35;;;8.40;;
30048;SDS011;16879;50.852;15.602;2023-05-07T09:48:52;15.98;;;9.98;;
30048;SDS011;16879;50.852;15.602;2023-05-07T09:53:48;14.45;;;10.55;;
30048;SDS011;16879;50.852;15.602;2023-05-07T09:56:15;12.27;;;9.95;;
30048;SDS011;16879;50.852;15.602;2023-05-07T09:58:42;13.43;;;10.40;;
30048;SDS011;16879;50.852;15.602;2023-05-07T10:01:10;10.23;;;9.10;;
30048;SDS011;16879;50.852;15.602;2023-05-07T10:03:37;10.48;;;8.82;;
30048;SDS011;16879;50.852;15.602;2023-05-07T10:06:07;9.65;;;8.63;;
30048;SDS011;16879;50.852;15.602;2023-05-07T10:08:35;11.98;;;10.02;;
30048;SDS011;16879;50.852;15.602;2023-05-07T10:11:01;11.55;;;10.35;;
30048;SDS011;16879;50.852;15.602;2023-05-07T10:13:27;11.25;;;10.07;;
30048;SDS011;16879;50.852;15.602;2023-05-07T10:15:54;11.65;;;10.43;;
30048;SDS011;16879;50.852;15.602;2023-05-07T10:18:21;13.75;;;11.05;;
30048;SDS011;16879;50.852;15.602;2023-05-07T10:20:48;12.18;;;10.40;;
30048;SDS011;16879;50.852;15.602;2023-05-07T10:23:17;11.40;;;9.25;;
30048;SDS011;16879;50.852;15.602;2023-05-07T10:25:48;12.48;;;10.57;;
30048;SDS011;16879;50.852;15.602;2023-05-07T10:28:14;15.40;;;11.98;;
30048;SDS011;16879;50.852;15.602;2023-05-07T10:33:27;14.48;;;11.75;;
30048;SDS011;16879;50.852;15.602;2023-05-07T10:35:57;14.70;;;12.13;;
30048;SDS011;16879;50.852;15.602;2023-05-07T10:38:24;16.20;;;11.77;;
30048;SDS011;16879;50.852;15.602;2023-05-07T10:40:50;14.30;;;12.52;;
30048;SDS011;16879;50.852;15.602;2023-05-07T10:43:17;13.35;;;11.55;;
30048;SDS011;16879;50.852;15.602;2023-05-07T10:45:43;14.35;;;12.85;;
30048;SDS011;16879;50.852;15.602;2023-05-07T10:48:10;14.18;;;11.63;;
30048;SDS011;16879;50.852;15.602;2023-05-07T10:50:37;18.67;;;13.85;;
30048;SDS011;16879;50.852;15.602;2023-05-07T10:55:48;11.73;;;9.68;;
30048;SDS011;16879;50.852;15.602;2023-05-07T11:00:48;13.52;;;12.15;;
30048;SDS011;16879;50.852;15.602;2023-05-07T11:03:14;15.93;;;13.35;;
30048;SDS011;16879;50.852;15.602;2023-05-07T11:05:41;11.85;;;10.57;;
30048;SDS011;16879;50.852;15.602;2023-05-07T11:08:08;12.20;;;11.00;;
30048;SDS011;16879;50.852;15.602;2023-05-07T11:13:13;10.93;;;9.93;;
30048;SDS011;16879;50.852;15.602;2023-05-07T11:15:43;9.70;;;8.70;;
30048;SDS011;16879;50.852;15.602;2023-05-07T11:18:11;13.15;;;10.55;;
30048;SDS011;16879;50.852;15.602;2023-05-07T11:20:44;13.18;;;11.90;;
30048;SDS011;16879;50.852;15.602;2023-05-07T11:26:06;13.18;;;11.23;;
30048;SDS011;16879;50.852;15.602;2023-05-07T11:28:36;13.90;;;12.38;;
30048;SDS011;16879;50.852;15.602;2023-05-07T11:31:06;11.38;;;9.95;;
30048;SDS011;16879;50.852;15.602;2023-05-07T11:33:33;12.77;;;10.32;;
30048;SDS011;16879;50.852;15.602;2023-05-07T11:36:01;12.40;;;10.13;;
30048;SDS011;16879;50.852;15.602;2023-05-07T11:38:28;14.18;;;12.05;;
30048;SDS011;16879;50.852;15.602;2023-05-07T11:40:58;24.27;;;18.25;;
30048;SDS011;16879;50.852;15.602;2023-05-07T11:43:26;21.85;;;15.55;;
30048;SDS011;16879;50.852;15.602;2023-05-07T11:45:52;17.45;;;13.05;;
30048;SDS011;16879;50.852;15.602;2023-05-07T11:48:18;26.63;;;17.23;;
30048;SDS011;16879;50.852;15.602;2023-05-07T11:50:59;25.38;;;16.02;;
30048;SDS011;16879;50.852;15.602;2023-05-07T11:53:26;19.27;;;12.80;;
30048;SDS011;16879;50.852;15.602;2023-05-07T11:55:53;15.95;;;11.63;;
30048;SDS011;16879;50.852;15.602;2023-05-07T11:58:23;16.88;;;12.65;;
30048;SDS011;16879;50.852;15.602;2023-05-07T12:00:53;22.83;;;14.30;;
30048;SDS011;16879;50.852;15.602;2023-05-07T12:03:20;21.98;;;15.38;;
30048;SDS011;16879;50.852;15.602;2023-05-07T12:05:46;21.85;;;14.90;;
30048;SDS011;16879;50.852;15.602;2023-05-07T12:08:14;18.92;;;13.95;;
30048;SDS011;16879;50.852;15.602;2023-05-07T12:10:41;20.70;;;15.68;;
30048;SDS011;16879;50.852;15.602;2023-05-07T12:13:40;16.10;;;12.15;;
30048;SDS011;16879;50.852;15.602;2023-05-07T12:15:59;13.57;;;11.80;;
30048;SDS011;16879;50.852;15.602;2023-05-07T12:18:28;20.30;;;14.18;;
30048;SDS011;16879;50.852;15.602;2023-05-07T12:20:55;14.82;;;13.25;;
30048;SDS011;16879;50.852;15.602;2023-05-07T12:23:21;17.70;;;14.57;;
30048;SDS011;16879;50.852;15.602;2023-05-07T12:25:47;17.13;;;14.20;;
30048;SDS011;16879;50.852;15.602;2023-05-07T12:28:15;14.38;;;12.88;;
30048;SDS011;16879;50.852;15.602;2023-05-07T12:30:45;15.77;;;13.82;;
30048;SDS011;16879;50.852;15.602;2023-05-07T12:33:11;16.98;;;14.55;;
30048;SDS011;16879;50.852;15.602;2023-05-07T12:35:38;14.60;;;13.27;;
30048;SDS011;16879;50.852;15.602;2023-05-07T12:38:15;13.60;;;11.95;;
30048;SDS011;16879;50.852;15.602;2023-05-07T12:40:46;12.85;;;11.65;;
30048;SDS011;16879;50.852;15.602;2023-05-07T12:43:16;18.88;;;14.68;;
30048;SDS011;16879;50.852;15.602;2023-05-07T12:45:47;18.17;;;16.30;;
30048;SDS011;16879;50.852;15.602;2023-05-07T12:48:13;12.95;;;11.75;;
30048;SDS011;16879;50.852;15.602;2023-05-07T12:50:40;18.25;;;15.65;;
30048;SDS011;16879;50.852;15.602;2023-05-07T12:53:07;22.20;;;15.40;;
30048;SDS011;16879;50.852;15.602;2023-05-07T12:55:43;17.17;;;15.32;;
30048;SDS011;16879;50.852;15.602;2023-05-07T12:58:16;19.38;;;15.30;;
30048;SDS011;16879;50.852;15.602;2023-05-07T13:00:43;18.17;;;16.38;;
30048;SDS011;16879;50.852;15.602;2023-05-07T13:03:10;21.02;;;16.83;;
30048;SDS011;16879;50.852;15.602;2023-05-07T13:05:36;19.15;;;16.80;;
30048;SDS011;16879;50.852;15.602;2023-05-07T13:08:02;22.42;;;19.10;;
30048;SDS011;16879;50.852;15.602;2023-05-07T13:10:29;26.92;;;22.15;;
30048;SDS011;16879;50.852;15.602;2023-05-07T13:12:55;22.10;;;19.80;;
30048;SDS011;16879;50.852;15.602;2023-05-07T13:15:21;26.52;;;19.48;;
30048;SDS011;16879;50.852;15.602;2023-05-07T13:17:48;22.13;;;19.25;;
30048;SDS011;16879;50.852;15.602;2023-05-07T13:20:14;24.70;;;20.25;;
30048;SDS011;16879;50.852;15.602;2023-05-07T13:22:40;23.25;;;18.90;;
30048;SDS011;16879;50.852;15.602;2023-05-07T13:25:06;22.98;;;18.83;;
30048;SDS011;16879;50.852;15.602;2023-05-07T13:27:32;20.95;;;18.23;;
30048;SDS011;16879;50.852;15.602;2023-05-07T13:30:02;20.65;;;18.33;;
30048;SDS011;16879;50.852;15.602;2023-05-07T13:32:28;18.23;;;16.35;;
30048;SDS011;16879;50.852;15.602;2023-05-07T13:34:56;18.55;;;16.50;;
30048;SDS011;16879;50.852;15.602;2023-05-07T13:37:22;17.65;;;15.82;;
30048;SDS011;16879;50.852;15.602;2023-05-07T13:39:48;21.15;;;17.08;;
30048;SDS011;16879;50.852;15.602;2023-05-07T13:42:14;17.15;;;15.35;;
30048;SDS011;16879;50.852;15.602;2023-05-07T13:44:40;17.42;;;15.65;;
30048;SDS011;16879;50.852;15.602;2023-05-07T13:47:06;21.98;;;19.15;;
30048;SDS011;16879;50.852;15.602;2023-05-07T13:49:32;19.10;;;17.10;;
30048;SDS011;16879;50.852;15.602;2023-05-07T13:51:57;19.02;;;15.95;;
30048;SDS011;16879;50.852;15.602;2023-05-07T13:54:24;19.85;;;16.48;;
30048;SDS011;16879;50.852;15.602;2023-05-07T13:56:49;19.15;;;17.00;;
30048;SDS011;16879;50.852;15.602;2023-05-07T13:59:16;23.05;;;16.05;;
30048;SDS011;16879;50.852;15.602;2023-05-07T14:01:42;21.00;;;16.15;;
30048;SDS011;16879;50.852;15.602;2023-05-07T14:04:08;20.00;;;16.00;;
30048;SDS011;16879;50.852;15.602;2023-05-07T14:06:34;20.45;;;16.80;;
30048;SDS011;16879;50.852;15.602;2023-05-07T14:09:01;20.98;;;15.82;;
30048;SDS011;16879;50.852;15.602;2023-05-07T14:11:27;15.68;;;13.98;;
30048;SDS011;16879;50.852;15.602;2023-05-07T14:13:53;16.60;;;13.25;;
30048;SDS011;16879;50.852;15.602;2023-05-07T14:16:19;14.90;;;13.10;;
30048;SDS011;16879;50.852;15.602;2023-05-07T14:18:45;14.60;;;12.70;;
30048;SDS011;16879;50.852;15.602;2023-05-07T14:21:12;14.88;;;12.38;;
30048;SDS011;16879;50.852;15.602;2023-05-07T14:23:39;13.90;;;12.43;;
30048;SDS011;16879;50.852;15.602;2023-05-07T14:26:05;17.35;;;13.30;;
30048;SDS011;16879;50.852;15.602;2023-05-07T14:28:31;16.33;;;12.00;;
30048;SDS011;16879;50.852;15.602;2023-05-07T14:30:57;15.73;;;12.52;;
30048;SDS011;16879;50.852;15.602;2023-05-07T14:33:23;16.40;;;13.13;;